createdAt,value
2022-12-04T00:01:49.942Z,37.00
2022-12-04T00:06:58.937Z,26.75
2022-12-04T00:12:04.090Z,35.75
2022-12-04T00:17:08.933Z,31.25
2022-12-04T00:22:13.768Z,32.00
2022-12-04T00:27:18.628Z,31.00
2022-12-04T00:32:23.573Z,30.25
2022-12-04T00:37:28.498Z,33.00
2022-12-04T00:42:33.301Z,41.00
2022-12-04T00:47:38.183Z,35.50
2022-12-04T00:52:42.558Z,39.00
2022-12-04T00:57:46.924Z,48.25
2022-12-04T01:02:51.389Z,42.75
2022-12-04T01:07:56.359Z,45.25
2022-12-04T01:13:00.764Z,43.75
2022-12-04T01:18:05.213Z,26.50
2022-12-04T01:23:10.006Z,42.00
2022-12-04T01:28:14.876Z,38.75
2022-12-04T01:33:19.951Z,33.25
2022-12-04T01:38:24.919Z,32.75
2022-12-04T01:43:31.330Z,35.75
2022-12-04T01:48:37.329Z,40.50
2022-12-04T01:53:44.457Z,36.00
2022-12-04T01:58:50.983Z,35.00
2022-12-04T02:03:56.009Z,41.75
2022-12-04T02:09:01.092Z,41.75
2022-12-04T02:14:24.150Z,37.25
2022-12-04T02:19:35.746Z,42.00
2022-12-04T02:24:55.493Z,41.25
2022-12-04T02:30:05.590Z,45.25
2022-12-04T02:35:22.345Z,40.00
2022-12-04T02:40:38.942Z,40.50
2022-12-04T02:45:46.655Z,36.25
2022-12-04T02:50:53.790Z,44.75
2022-12-04T02:56:00.929Z,28.00
2022-12-04T03:01:20.917Z,28.50
2022-12-04T03:06:27.757Z,38.25
2022-12-04T03:11:35.765Z,37.00
2022-12-04T03:16:42.494Z,46.00
2022-12-04T03:21:54.086Z,29.25
2022-12-04T03:27:01.991Z,38.25
2022-12-04T03:32:10.263Z,28.50
2022-12-04T03:37:19.255Z,32.00
2022-12-04T03:42:29.563Z,27.25
2022-12-04T03:47:40.728Z,27.00
2022-12-04T03:52:45.172Z,29.25
2022-12-04T03:57:51.319Z,23.25
2022-12-04T04:03:16.087Z,26.00
2022-12-04T04:08:35.498Z,24.00
2022-12-04T04:14:20.592Z,30.00
2022-12-04T04:19:45.657Z,27.00
2022-12-04T04:24:59.782Z,20.75
2022-12-04T04:30:04.991Z,23.50
2022-12-04T04:35:10.220Z,25.50
2022-12-04T04:40:26.018Z,22.00
2022-12-04T04:45:38.334Z,25.25
2022-12-04T04:50:44.058Z,20.50
2022-12-04T04:55:50.221Z,22.00
2022-12-04T05:01:03.443Z,18.25
2022-12-04T05:06:08.686Z,18.00
2022-12-04T05:11:14.882Z,23.50
2022-12-04T05:16:20.052Z,18.25
2022-12-04T05:21:24.913Z,19.25
2022-12-04T05:26:30.364Z,16.00
2022-12-04T05:31:35.734Z,23.00
2022-12-04T05:36:40.919Z,15.75
2022-12-04T05:41:45.640Z,19.75
2022-12-04T05:46:50.953Z,22.25
2022-12-04T05:51:56.248Z,18.00
2022-12-04T05:57:01.848Z,17.50
2022-12-04T06:02:06.990Z,21.50
2022-12-04T06:07:18.771Z,16.00
2022-12-04T06:12:27.110Z,19.00
2022-12-04T06:17:31.978Z,23.50
2022-12-04T06:22:37.247Z,22.25
2022-12-04T06:27:42.662Z,19.75
2022-12-04T06:32:47.613Z,20.25
2022-12-04T06:37:52.618Z,19.25
2022-12-04T06:42:57.305Z,18.25
2022-12-04T06:48:02.236Z,19.00
2022-12-04T06:53:08.673Z,21.25
2022-12-04T06:58:14.928Z,18.00
2022-12-04T07:03:20.080Z,19.00
2022-12-04T07:08:25.262Z,19.00
2022-12-04T07:13:30.407Z,17.75
2022-12-04T07:18:36.948Z,25.00
2022-12-04T07:23:43.158Z,18.75
2022-12-04T07:28:48.706Z,21.75
2022-12-04T07:33:55.328Z,16.00
2022-12-04T07:39:00.597Z,17.75
2022-12-04T07:44:05.355Z,20.00
2022-12-04T07:49:14.358Z,23.25
2022-12-04T07:54:19.493Z,23.50
2022-12-04T07:59:24.876Z,22.25
2022-12-04T08:04:29.928Z,22.75
2022-12-04T08:09:35.194Z,21.25
2022-12-04T08:14:39.900Z,20.25
2022-12-04T08:19:45.214Z,22.25
2022-12-04T08:24:50.448Z,22.50
2022-12-04T08:29:56.234Z,22.25
2022-12-04T08:35:01.842Z,17.00
2022-12-04T08:40:14.671Z,18.00
2022-12-04T08:45:20.700Z,21.75
2022-12-04T08:50:25.603Z,19.00
2022-12-04T08:55:33.520Z,19.25
2022-12-04T09:00:38.758Z,24.75
2022-12-04T09:05:44.213Z,21.50
2022-12-04T09:10:49.199Z,20.50
2022-12-04T09:15:55.442Z,25.50
2022-12-04T09:21:01.943Z,21.50
2022-12-04T09:26:08.513Z,32.50
2022-12-04T09:31:14.483Z,22.25
2022-12-04T09:36:22.654Z,23.50
2022-12-04T09:41:27.816Z,24.25
2022-12-04T09:46:33.033Z,21.75
2022-12-04T09:51:39.956Z,28.75
2022-12-04T09:56:47.586Z,26.00
2022-12-04T10:01:59.376Z,24.25
2022-12-04T10:07:16.556Z,23.25
2022-12-04T10:12:40.461Z,28.00
2022-12-04T10:17:51.681Z,45.00
2022-12-04T10:22:57.958Z,31.50
2022-12-04T10:28:08.401Z,43.00
2022-12-04T10:33:12.798Z,35.75
2022-12-04T10:38:28.659Z,35.00
2022-12-04T10:43:33.675Z,46.75
2022-12-04T10:48:40.161Z,55.75
2022-12-04T10:53:47.892Z,78.75
2022-12-04T10:59:06.936Z,67.00
2022-12-04T11:04:15.084Z,63.50
2022-12-04T11:09:25.414Z,60.50
2022-12-04T11:14:30.279Z,62.50
2022-12-04T11:19:37.815Z,57.50
2022-12-04T11:24:44.291Z,63.00
2022-12-04T11:29:50.082Z,56.00
2022-12-04T11:34:56.245Z,55.00
2022-12-04T11:40:00.953Z,59.75
2022-12-04T11:45:19.931Z,52.00
2022-12-04T11:50:29.112Z,51.25
2022-12-04T11:55:50.624Z,50.75
2022-12-04T12:01:15.839Z,45.50
2022-12-04T12:06:27.323Z,46.50
2022-12-04T12:11:42.382Z,48.75
2022-12-04T12:16:57.056Z,35.00
2022-12-04T12:22:09.638Z,45.75
2022-12-04T12:27:15.376Z,38.75
2022-12-04T12:32:23.587Z,47.25
2022-12-04T12:38:00.587Z,40.50
2022-12-04T12:43:08.908Z,39.00
2022-12-04T12:48:36.936Z,31.00
2022-12-04T12:53:45.067Z,38.50
2022-12-04T12:58:58.083Z,39.50
2022-12-04T13:04:25.966Z,33.00
2022-12-04T13:09:33.385Z,36.25
2022-12-04T13:14:38.713Z,35.00
2022-12-04T13:19:48.922Z,32.50
2022-12-04T13:25:06.805Z,34.25
2022-12-04T13:30:23.265Z,32.25
2022-12-04T13:35:47.365Z,41.25
2022-12-04T13:40:57.764Z,33.50
2022-12-04T13:46:04.991Z,33.50
2022-12-04T13:51:24.630Z,30.00
2022-12-04T13:56:31.150Z,28.25
2022-12-04T14:01:43.276Z,29.75
2022-12-04T14:06:52.825Z,32.50
2022-12-04T14:12:05.468Z,30.25
2022-12-04T14:17:21.072Z,29.75
2022-12-04T14:22:39.868Z,33.00
2022-12-04T14:27:45.181Z,31.75
2022-12-04T14:32:53.123Z,32.25
2022-12-04T14:38:03.713Z,33.75
2022-12-04T14:43:09.099Z,29.75
2022-12-04T14:48:22.768Z,30.00
2022-12-04T14:53:27.522Z,27.00
2022-12-04T14:58:39.935Z,32.75
2022-12-04T15:03:47.890Z,34.00
2022-12-04T15:09:16.877Z,28.75
2022-12-04T15:14:22.003Z,32.50
2022-12-04T15:19:28.982Z,26.50
2022-12-04T15:24:34.407Z,38.00
2022-12-04T15:29:49.685Z,41.25
2022-12-04T15:35:00.958Z,34.00
2022-12-04T15:40:13.088Z,31.75
2022-12-04T15:45:21.559Z,35.00
2022-12-04T15:50:33.633Z,39.50
2022-12-04T15:56:00.610Z,34.50
2022-12-04T16:01:06.370Z,37.50
2022-12-04T16:06:20.779Z,37.25
2022-12-04T16:11:30.365Z,39.00
2022-12-04T16:16:35.543Z,35.75
2022-12-04T16:21:40.911Z,49.25
2022-12-04T16:26:46.100Z,42.75
2022-12-04T16:31:52.646Z,49.75
2022-12-04T16:36:58.145Z,51.25
2022-12-04T16:42:03.281Z,42.75
2022-12-04T16:47:11.391Z,46.75
2022-12-04T16:52:17.110Z,35.25
2022-12-04T16:57:23.378Z,42.50
2022-12-04T17:02:29.564Z,40.25
2022-12-04T17:07:34.958Z,43.50
2022-12-04T17:12:40.214Z,42.75
2022-12-04T17:17:45.687Z,47.50
2022-12-04T17:22:51.587Z,46.25
2022-12-04T17:27:58.879Z,45.75
2022-12-04T17:33:04.738Z,38.00
2022-12-04T17:38:10.297Z,47.25
2022-12-04T17:43:21.736Z,49.00
2022-12-04T17:48:27.403Z,43.75
2022-12-04T17:53:32.202Z,40.75
2022-12-04T17:58:37.532Z,45.75
2022-12-04T18:03:44.877Z,38.50
2022-12-04T18:08:50.569Z,32.25
2022-12-04T18:13:57.005Z,42.00
2022-12-04T18:19:03.227Z,41.50
2022-12-04T18:24:09.357Z,34.00
2022-12-04T18:29:15.334Z,42.25
2022-12-04T18:34:21.033Z,44.25
2022-12-04T18:39:26.856Z,46.50
2022-12-04T18:44:31.580Z,37.75
2022-12-04T18:49:36.268Z,41.75
2022-12-04T18:54:40.975Z,39.25
2022-12-04T18:59:45.748Z,30.75
2022-12-04T19:04:50.600Z,37.75
2022-12-04T19:10:21.084Z,29.75
2022-12-04T19:15:20.969Z,34.25
2022-12-04T19:20:25.598Z,33.25
2022-12-04T19:25:30.386Z,39.25
2022-12-04T19:30:36.641Z,36.75
2022-12-04T19:35:41.476Z,30.50
2022-12-04T19:40:46.341Z,29.25
2022-12-04T19:45:51.273Z,31.25
2022-12-04T19:50:55.698Z,32.50
2022-12-04T19:56:03.840Z,31.75
2022-12-04T20:01:10.399Z,27.75
2022-12-04T20:06:17.432Z,28.25
2022-12-04T20:11:22.439Z,27.00
2022-12-04T20:16:28.200Z,38.50
2022-12-04T20:21:33.920Z,28.50
2022-12-04T20:26:40.173Z,35.00
2022-12-04T20:31:45.969Z,29.25
2022-12-04T20:36:51.006Z,29.75
2022-12-04T20:41:55.394Z,36.25
2022-12-04T20:47:00.301Z,30.25
2022-12-04T20:52:05.707Z,27.75
2022-12-04T20:57:10.870Z,24.75
2022-12-04T21:02:15.756Z,29.50
2022-12-04T21:07:20.697Z,33.00
2022-12-04T21:12:43.626Z,26.00
2022-12-04T21:17:48.121Z,28.50
2022-12-04T21:22:53.034Z,36.50
2022-12-04T21:27:57.868Z,29.50
2022-12-04T21:33:02.734Z,29.25
2022-12-04T21:38:07.716Z,27.00
2022-12-04T21:43:12.610Z,31.50
2022-12-04T21:48:17.478Z,32.00
2022-12-04T21:53:23.032Z,29.75
2022-12-04T21:58:30.282Z,28.50
2022-12-04T22:03:35.047Z,32.25
2022-12-04T22:08:40.816Z,28.00
2022-12-04T22:13:46.283Z,35.25
2022-12-04T22:18:51.423Z,34.00
2022-12-04T22:24:00.205Z,26.75
2022-12-04T22:29:27.326Z,29.25
2022-12-04T22:34:30.599Z,27.25
2022-12-04T22:39:35.437Z,29.50
2022-12-04T22:44:40.352Z,35.00
2022-12-04T22:49:45.368Z,32.00
2022-12-04T22:54:52.597Z,25.25
2022-12-04T22:59:57.479Z,25.00
2022-12-04T23:05:02.595Z,30.50
2022-12-04T23:10:07.909Z,29.00
2022-12-04T23:15:12.875Z,38.00
2022-12-04T23:20:17.735Z,29.00
2022-12-04T23:25:22.911Z,25.75
2022-12-04T23:30:30.547Z,26.50
2022-12-04T23:35:37.743Z,31.00
2022-12-04T23:40:42.632Z,23.00
2022-12-04T23:45:47.650Z,27.75
2022-12-04T23:50:52.697Z,34.25
2022-12-04T23:55:58.739Z,31.00
